Aneth, Utah
Current Conditions -  °F | °C
As of 7:15 AM on Sunday 25 Jan 2015 (Local Time) from KBDG Reporting Station
Clear Clear  
Wind Chill: 28°   Ceiling: Unl
Heat Index: 28°   Visibility: 10mi
Dew Point: 20°   Wind: 3mph
Humidity: 73%   Direction: 320°NW
Pressure: 30.38"   Gusts: NA
Location:  37.22°N, 109.19°W
Report Text: KBDG 251415Z AUTO 32003KT 10SM CLR M02/M06 A3038 RMK AO1 T10221065
Loading
Personal Weather Stations






























Interactive Weather Map New forecast layout! Learn more

10-Day Weather Forecast

Advertisements
Track Severe Weather on mobile